Terminal Aerodrome Forecast
Issued by NWS Tulsa, OK

Home | Current Version | Previous Version | Text Only | Print | Product List | Glossary On
Versions: 1 2 3 4 5 6 7 8 9 10 11 12 13 14 15 16 17 18
000
FTUS44 KTSA 211400 AAB
TAFTUL
TAF AMD
KTUL 211443Z 2115/2212 04005KT 6SM SHRA BKN050 BKN090
      TEMPO 2115/2117 2SM -TSRA BKN015CB
     FM211700 01012KT P6SM SCT040 SCT100
     FM220400 01005KT P6SM SKC=

USA.gov is the U.S. government's official web portal to all federal, state and local government web resources and services.